createdAt,value
2019-04-19T00:01:01.386Z,54.05
2019-04-19T00:03:30.497Z,53.58
2019-04-19T00:06:19.056Z,52.87
2019-04-19T00:09:01.466Z,52.76
2019-04-19T00:11:21.068Z,52.62
2019-04-19T00:13:38.913Z,52.77
2019-04-19T00:16:06.754Z,52.74
2019-04-19T00:18:38.959Z,53.04
2019-04-19T00:21:18.306Z,53.13
2019-04-19T00:23:36.620Z,53.03
2019-04-19T00:25:59.892Z,53.00
2019-04-19T00:28:36.707Z,53.46
2019-04-19T00:31:13.365Z,54.05
2019-04-19T00:33:32.831Z,54.95
2019-04-19T00:35:53.704Z,55.55
2019-04-19T00:38:40.510Z,55.76
2019-04-19T00:41:14.172Z,56.05
2019-04-19T00:43:57.644Z,55.50
2019-04-19T00:46:33.993Z,55.60
2019-04-19T00:48:58.493Z,55.51
2019-04-19T00:51:22.954Z,55.91
2019-04-19T00:53:58.848Z,55.87
2019-04-19T00:56:16.771Z,56.01
2019-04-19T00:58:48.449Z,56.33
2019-04-19T01:01:17.155Z,56.06
2019-04-19T01:03:43.649Z,55.44
2019-04-19T01:06:10.649Z,55.40
2019-04-19T01:08:49.062Z,56.19
2019-04-19T01:11:20.982Z,56.47
2019-04-19T01:13:50.610Z,56.60
2019-04-19T01:16:18.714Z,57.02
2019-04-19T01:18:44.408Z,56.90
2019-04-19T01:21:04.961Z,56.41
2019-04-19T01:23:40.593Z,55.93
2019-04-19T01:26:05.285Z,55.93
2019-04-19T01:28:30.582Z,55.51
2019-04-19T01:30:58.956Z,55.42
2019-04-19T01:33:35.484Z,54.87
2019-04-19T01:36:00.078Z,54.17
2019-04-19T01:38:27.381Z,53.60
2019-04-19T01:41:12.090Z,53.05
2019-04-19T01:43:49.766Z,53.18
2019-04-19T01:46:43.690Z,53.54
2019-04-19T01:49:22.640Z,53.62
2019-04-19T01:52:09.807Z,53.19
2019-04-19T01:54:33.375Z,53.13
2019-04-19T01:56:55.159Z,53.24
2019-04-19T01:59:31.503Z,53.58
2019-04-19T02:02:01.770Z,53.77
2019-04-19T02:04:28.182Z,53.69
2019-04-19T02:06:54.640Z,53.85
2019-04-19T02:09:31.321Z,54.42
2019-04-19T02:12:11.050Z,54.25
2019-04-19T02:14:35.507Z,54.22
2019-04-19T02:16:59.154Z,54.20
2019-04-19T02:19:25.128Z,54.18
2019-04-19T02:21:51.045Z,54.62
2019-04-19T02:24:28.153Z,54.87
2019-04-19T02:26:54.013Z,55.16
2019-04-19T02:29:21.823Z,55.29
2019-04-19T02:32:13.642Z,55.96
2019-04-19T02:34:42.459Z,56.26
2019-04-19T02:37:16.278Z,55.77
2019-04-19T02:39:47.306Z,55.56
2019-04-19T02:44:55.284Z,55.23
2019-04-19T02:52:15.099Z,56.09
2019-04-19T02:54:49.860Z,56.19
2019-04-19T02:57:48.210Z,55.91
2019-04-19T03:00:24.793Z,55.93
2019-04-19T03:05:38.372Z,55.93
2019-04-19T03:07:32.176Z,56.17
2019-04-19T03:10:00.009Z,56.26
2019-04-19T03:12:48.272Z,56.51
2019-04-19T03:15:09.556Z,56.48
2019-04-19T03:17:45.850Z,56.12
2019-04-19T03:20:15.213Z,56.15
2019-04-19T03:22:39.177Z,56.07
2019-04-19T03:25:10.870Z,56.32
2019-04-19T03:27:28.502Z,57.29
2019-04-19T03:30:04.519Z,57.71
2019-04-19T03:33:00.414Z,57.63
2019-04-19T03:37:30.590Z,57.85
2019-04-19T03:40:12.893Z,58.14
2019-04-19T03:43:10.656Z,57.77
2019-04-19T03:45:47.416Z,57.63
2019-04-19T03:48:10.023Z,57.85
2019-04-19T03:50:37.386Z,58.04
2019-04-19T03:53:06.883Z,57.76
2019-04-19T03:55:29.890Z,57.71
2019-04-19T03:57:52.294Z,57.41
2019-04-19T04:00:13.313Z,57.33
2019-04-19T04:02:43.399Z,57.02
2019-04-19T04:05:11.141Z,57.00
2019-04-19T04:07:38.947Z,56.98
2019-04-19T04:10:23.810Z,56.96
2019-04-19T04:13:09.278Z,57.11
2019-04-19T04:16:03.519Z,57.26
2019-04-19T04:18:15.749Z,57.64
2019-04-19T04:20:47.623Z,58.27
2019-04-19T04:23:17.934Z,58.22
2019-04-19T04:25:48.445Z,58.19
2019-04-19T04:28:23.557Z,58.31
2019-04-19T04:30:51.689Z,58.52
2019-04-19T04:33:21.681Z,58.75
2019-04-19T04:35:48.386Z,59.07
2019-04-19T04:38:11.099Z,59.64
2019-04-19T04:40:33.729Z,59.44
2019-04-19T04:43:15.284Z,59.59
2019-04-19T04:46:05.245Z,59.43
2019-04-19T04:48:51.046Z,59.18
2019-04-19T04:51:22.078Z,59.08
2019-04-19T04:53:51.110Z,59.00
2019-04-19T04:56:25.992Z,59.29
2019-04-19T04:58:52.446Z,59.61
2019-04-19T05:01:29.049Z,59.67
2019-04-19T05:04:07.427Z,59.67
2019-04-19T05:06:36.438Z,59.54
2019-04-19T05:09:05.155Z,59.85
2019-04-19T05:11:33.931Z,59.83
2019-04-19T05:14:05.907Z,59.77
2019-04-19T05:16:41.732Z,60.45
2019-04-19T05:18:58.411Z,60.33
2019-04-19T05:21:28.580Z,60.34
2019-04-19T05:24:05.425Z,60.29
2019-04-19T05:26:43.660Z,60.32
2019-04-19T05:28:54.347Z,60.27
2019-04-19T05:31:21.621Z,60.28
2019-04-19T05:33:53.854Z,60.47
2019-04-19T05:36:29.271Z,60.38
2019-04-19T05:39:17.224Z,60.20
2019-04-19T05:42:04.077Z,59.58
2019-04-19T05:45:00.093Z,59.24
2019-04-19T05:47:20.734Z,59.40
2019-04-19T05:49:45.291Z,59.22
2019-04-19T05:52:19.216Z,59.00
2019-04-19T05:54:27.878Z,58.78
2019-04-19T05:56:59.424Z,58.42
2019-04-19T06:02:07.511Z,57.75
2019-04-19T06:04:38.748Z,57.56
2019-04-19T06:07:09.460Z,57.61
2019-04-19T06:09:23.969Z,57.28
2019-04-19T06:11:51.404Z,56.79
2019-04-19T06:14:46.482Z,56.00
2019-04-19T06:17:24.995Z,55.62
2019-04-19T06:19:50.422Z,55.38
2019-04-19T06:22:20.214Z,54.91
2019-04-19T06:24:51.990Z,54.65
2019-04-19T06:27:25.235Z,54.20
2019-04-19T06:30:03.640Z,54.04
2019-04-19T06:32:20.869Z,53.70
2019-04-19T06:34:46.694Z,53.46
2019-04-19T06:37:08.390Z,53.24
2019-04-19T06:39:31.714Z,52.83
2019-04-19T06:42:04.344Z,52.36
2019-04-19T06:44:50.649Z,51.58
2019-04-19T06:47:10.569Z,51.54
2019-04-19T06:49:29.434Z,51.26
2019-04-19T06:52:03.858Z,50.78
2019-04-19T06:54:33.138Z,50.49
2019-04-19T06:57:07.657Z,49.68
2019-04-19T06:59:39.261Z,49.41
2019-04-19T07:01:55.851Z,49.35
2019-04-19T07:04:21.156Z,49.10
2019-04-19T07:07:13.313Z,48.32
2019-04-19T07:09:56.561Z,48.50
2019-04-19T07:12:06.719Z,48.13
2019-04-19T07:14:20.640Z,48.06
2019-04-19T07:17:02.645Z,48.21
2019-04-19T07:19:35.002Z,47.77
2019-04-19T07:21:55.254Z,47.94
2019-04-19T07:24:33.600Z,47.81
2019-04-19T07:26:58.073Z,47.56
2019-04-19T07:29:08.324Z,46.99
2019-04-19T07:31:37.020Z,46.96
2019-04-19T07:34:13.595Z,45.84
2019-04-19T07:36:54.600Z,46.25
2019-04-19T07:39:22.834Z,46.40
2019-04-19T07:41:45.325Z,45.93
2019-04-19T07:44:41.112Z,45.96
2019-04-19T07:47:27.691Z,45.62
2019-04-19T07:49:51.403Z,45.14
2019-04-19T07:52:19.107Z,45.34
2019-04-19T07:54:40.727Z,45.20
2019-04-19T07:57:45.743Z,44.63
2019-04-19T08:00:00.762Z,44.63
2019-04-19T08:02:36.082Z,44.65
2019-04-19T08:05:06.169Z,44.09
2019-04-19T08:10:03.479Z,44.41
2019-04-19T08:12:30.690Z,44.46
2019-04-19T08:29:38.388Z,43.06
2019-04-19T08:31:57.920Z,43.11
2019-04-19T08:34:28.319Z,43.14
2019-04-19T08:36:59.453Z,42.73
2019-04-19T08:40:40.878Z,42.64
2019-04-19T08:42:10.746Z,42.51
2019-04-19T08:44:38.658Z,42.53
2019-04-19T08:47:21.417Z,42.23
2019-04-19T08:49:47.738Z,41.93
2019-04-19T08:52:25.711Z,40.94
2019-04-19T08:55:09.889Z,40.56
2019-04-19T08:57:22.620Z,40.49
2019-04-19T09:00:19.104Z,40.81
2019-04-19T09:02:34.095Z,40.95
2019-04-19T09:05:03.992Z,39.45
2019-04-19T09:10:27.619Z,40.19
2019-04-19T09:12:31.237Z,39.27
2019-04-19T09:15:00.929Z,38.69
2019-04-19T09:17:43.246Z,39.88
2019-04-19T09:20:14.124Z,38.36
2019-04-19T09:22:27.650Z,38.16
2019-04-19T09:24:48.031Z,37.91
2019-04-19T09:27:32.906Z,37.00
2019-04-19T09:30:13.692Z,38.81
2019-04-19T09:32:11.963Z,38.88
2019-04-19T09:34:34.962Z,37.55
2019-04-19T09:37:11.697Z,38.55
2019-04-19T09:39:44.173Z,37.03
2019-04-19T09:42:13.891Z,36.97
2019-04-19T09:44:43.092Z,37.29
2019-04-19T09:47:05.589Z,37.68
2019-04-19T09:49:51.414Z,36.53
2019-04-19T09:52:27.884Z,35.94
2019-04-19T09:54:55.553Z,35.74
2019-04-19T09:57:13.177Z,36.58
2019-04-19T09:59:32.845Z,37.00
2019-04-19T10:02:00.637Z,36.85
2019-04-19T10:04:25.162Z,37.14
2019-04-19T10:06:54.825Z,37.00
2019-04-19T10:09:22.739Z,37.15
2019-04-19T10:11:50.919Z,36.99
2019-04-19T10:14:19.248Z,37.50
2019-04-19T10:16:52.731Z,37.23
2019-04-19T10:19:19.461Z,36.98
2019-04-19T10:22:10.022Z,35.86
2019-04-19T10:24:36.938Z,36.13
2019-04-19T10:27:17.653Z,36.50
2019-04-19T10:29:47.019Z,37.14
2019-04-19T10:32:22.931Z,37.13
2019-04-19T10:34:52.536Z,36.64
2019-04-19T10:37:20.273Z,37.02
2019-04-19T10:39:48.194Z,36.52
2019-04-19T10:42:18.599Z,36.18
2019-04-19T10:45:00.503Z,34.86
2019-04-19T10:47:29.309Z,33.62
2019-04-19T10:50:12.051Z,33.49
2019-04-19T10:52:26.073Z,33.76
2019-04-19T10:54:53.483Z,33.32
2019-04-19T10:57:21.341Z,33.35
2019-04-19T10:59:50.129Z,32.90
2019-04-19T11:02:21.193Z,32.59
2019-04-19T11:04:48.904Z,32.29
2019-04-19T11:07:23.552Z,32.61
2019-04-19T11:09:51.375Z,32.38
2019-04-19T11:12:18.166Z,32.08
2019-04-19T11:14:46.116Z,32.12
2019-04-19T11:17:15.935Z,31.89
2019-04-19T11:19:58.865Z,31.76
2019-04-19T11:22:12.037Z,32.48
2019-04-19T11:24:39.193Z,32.51
2019-04-19T11:27:07.195Z,32.49
2019-04-19T11:29:34.528Z,31.73
2019-04-19T11:32:28.222Z,32.17
2019-04-19T11:34:55.690Z,32.01
2019-04-19T11:37:23.422Z,32.61
2019-04-19T11:39:51.007Z,32.40
2019-04-19T11:42:19.162Z,32.46
2019-04-19T11:44:46.180Z,32.73
2019-04-19T11:47:13.699Z,33.00
2019-04-19T11:49:42.689Z,31.90
2019-04-19T11:52:16.813Z,31.16
2019-04-19T11:54:44.267Z,30.23
2019-04-19T11:57:24.157Z,29.94
2019-04-19T11:59:57.429Z,29.85
2019-04-19T12:02:35.904Z,30.35
2019-04-19T12:05:12.809Z,31.15
2019-04-19T12:07:34.730Z,31.44
2019-04-19T12:10:03.064Z,31.82
2019-04-19T12:12:30.859Z,32.31
2019-04-19T12:14:57.837Z,32.16
2019-04-19T12:17:29.210Z,30.25
2019-04-19T12:20:00.815Z,29.54
2019-04-19T12:22:25.370Z,28.14
2019-04-19T12:24:54.956Z,27.76
2019-04-19T12:27:23.509Z,28.15
2019-04-19T12:29:53.308Z,28.42
2019-04-19T12:32:21.655Z,27.95
2019-04-19T12:34:48.730Z,28.25
2019-04-19T12:37:19.449Z,28.06
2019-04-19T12:39:52.847Z,27.45
2019-04-19T12:42:35.923Z,27.05
2019-04-19T12:45:08.048Z,26.98
2019-04-19T12:47:35.452Z,27.23
2019-04-19T12:50:06.958Z,27.51
2019-04-19T12:52:40.054Z,25.99
2019-04-19T12:55:08.200Z,26.19
2019-04-19T12:57:41.595Z,25.65
2019-04-19T13:00:09.924Z,25.39
2019-04-19T13:02:51.795Z,24.81
2019-04-19T13:05:28.242Z,24.58
2019-04-19T13:07:56.764Z,24.20
2019-04-19T13:10:24.897Z,24.23
2019-04-19T13:12:52.054Z,23.99
2019-04-19T13:15:23.790Z,23.54
2019-04-19T13:17:52.156Z,23.81
2019-04-19T13:20:25.808Z,24.03
2019-04-19T13:22:48.525Z,23.71
2019-04-19T13:25:17.295Z,22.93
2019-04-19T13:27:54.241Z,23.72
2019-04-19T13:30:29.520Z,23.10
2019-04-19T13:32:49.526Z,23.71
2019-04-19T13:35:17.101Z,22.98
2019-04-19T13:38:11.194Z,22.99
2019-04-19T13:41:00.812Z,22.83
2019-04-19T13:43:31.198Z,23.30
2019-04-19T13:45:58.898Z,23.50
2019-04-19T13:48:28.269Z,23.25
2019-04-19T13:50:56.290Z,22.95
2019-04-19T13:53:24.670Z,22.82
2019-04-19T13:55:54.862Z,23.12
2019-04-19T13:58:22.059Z,22.68
2019-04-19T14:00:54.403Z,22.78
2019-04-19T14:03:21.480Z,22.58
2019-04-19T14:05:49.935Z,22.33
2019-04-19T14:08:17.456Z,22.53
2019-04-19T14:10:47.138Z,22.26
2019-04-19T14:13:14.876Z,21.97
2019-04-19T14:15:44.839Z,21.75
2019-04-19T14:18:17.120Z,21.29
2019-04-19T14:20:48.589Z,21.72
2019-04-19T14:23:13.267Z,21.36
2019-04-19T14:25:41.196Z,21.82
2019-04-19T14:28:09.403Z,21.17
2019-04-19T14:30:37.488Z,21.64
2019-04-19T14:33:08.405Z,21.13
2019-04-19T14:35:42.017Z,21.48
2019-04-19T14:38:09.492Z,20.82
2019-04-19T14:40:41.604Z,20.17
2019-04-19T14:43:08.868Z,20.34
2019-04-19T14:45:36.363Z,20.06
2019-04-19T14:48:06.772Z,20.30
2019-04-19T14:50:42.575Z,21.22
2019-04-19T14:53:03.601Z,20.60
2019-04-19T14:55:30.473Z,20.24
2019-04-19T14:57:57.163Z,20.55
2019-04-19T15:00:25.108Z,20.84
2019-04-19T15:03:02.840Z,19.82
2019-04-19T15:05:32.164Z,19.57
2019-04-19T15:07:58.938Z,19.78
2019-04-19T15:10:27.261Z,19.79
2019-04-19T15:12:54.576Z,19.86
2019-04-19T15:15:22.344Z,19.65
2019-04-19T15:17:49.630Z,19.67
2019-04-19T15:20:19.915Z,19.70
2019-04-19T15:22:47.489Z,19.56
2019-04-19T15:25:19.853Z,19.87
2019-04-19T15:27:47.154Z,19.99
2019-04-19T15:30:14.916Z,19.18
2019-04-19T15:32:42.416Z,18.83
2019-04-19T15:35:11.910Z,18.73
2019-04-19T15:37:41.674Z,18.35
2019-04-19T15:40:12.100Z,18.70
2019-04-19T15:42:38.986Z,18.51
2019-04-19T15:45:07.199Z,18.04
2019-04-19T15:47:42.588Z,18.28
2019-04-19T15:50:11.747Z,18.92
2019-04-19T15:52:39.898Z,19.05
2019-04-19T15:55:08.022Z,19.54
2019-04-19T15:57:36.264Z,18.72
2019-04-19T16:00:06.040Z,18.14
2019-04-19T16:02:53.886Z,18.66
2019-04-19T16:05:46.468Z,19.07
2019-04-19T16:08:22.651Z,18.78
2019-04-19T16:11:08.827Z,18.09
2019-04-19T16:13:36.151Z,18.39
2019-04-19T16:16:05.885Z,18.67
2019-04-19T16:18:36.136Z,18.22
2019-04-19T16:21:05.858Z,17.96
2019-04-19T16:23:32.630Z,18.54
2019-04-19T16:25:59.342Z,17.89
2019-04-19T16:28:27.428Z,18.51
2019-04-19T16:30:54.625Z,18.54
2019-04-19T16:33:22.096Z,19.61
2019-04-19T16:35:49.203Z,19.13
2019-04-19T16:38:16.390Z,19.31
2019-04-19T16:40:43.252Z,18.53
2019-04-19T16:43:11.220Z,17.88
2019-04-19T16:45:38.309Z,17.14
2019-04-19T16:48:06.634Z,16.98
2019-04-19T16:50:34.521Z,16.91
2019-04-19T16:53:04.388Z,16.65
2019-04-19T16:55:30.042Z,17.08
2019-04-19T16:57:57.149Z,17.21
2019-04-19T17:00:39.145Z,16.60
2019-04-19T17:03:07.055Z,16.95
2019-04-19T17:05:34.774Z,17.08
2019-04-19T17:08:01.690Z,17.00
2019-04-19T17:10:28.828Z,16.76
2019-04-19T17:12:55.908Z,16.85
2019-04-19T17:15:51.346Z,17.88
2019-04-19T17:18:26.932Z,18.59
2019-04-19T17:20:57.684Z,20.40
2019-04-19T17:23:24.571Z,20.84
2019-04-19T17:25:53.440Z,21.33
2019-04-19T17:28:21.143Z,21.39
2019-04-19T17:30:50.871Z,21.53
2019-04-19T17:33:17.963Z,22.00
2019-04-19T17:35:45.981Z,22.44
2019-04-19T17:38:25.001Z,22.82
2019-04-19T17:40:42.729Z,23.01
2019-04-19T17:43:09.842Z,23.32
2019-04-19T17:45:37.788Z,23.58
2019-04-19T17:48:04.877Z,23.49
2019-04-19T17:50:32.414Z,23.81
2019-04-19T17:53:00.338Z,23.95
2019-04-19T17:55:36.693Z,23.67
2019-04-19T17:58:01.264Z,23.73
2019-04-19T18:00:28.307Z,23.90
2019-04-19T18:03:01.479Z,24.02
2019-04-19T18:05:28.184Z,23.97
2019-04-19T18:07:56.041Z,24.10
2019-04-19T18:10:33.559Z,24.29
2019-04-19T18:12:53.236Z,24.15
2019-04-19T18:15:19.956Z,24.32
2019-04-19T18:17:54.250Z,24.30
2019-04-19T18:20:19.975Z,24.37
2019-04-19T18:22:58.168Z,24.56
2019-04-19T18:25:15.915Z,24.92
2019-04-19T18:27:48.645Z,24.99
2019-04-19T18:30:12.190Z,25.14
2019-04-19T18:32:47.889Z,25.66
2019-04-19T18:35:21.293Z,25.69
2019-04-19T18:37:45.773Z,25.68
2019-04-19T18:40:15.195Z,25.76
2019-04-19T18:42:53.122Z,25.88
2019-04-19T18:45:17.590Z,25.85
2019-04-19T18:47:43.215Z,25.80
2019-04-19T18:50:10.481Z,25.89
2019-04-19T18:52:48.515Z,26.06
2019-04-19T18:55:11.733Z,26.23
2019-04-19T18:57:39.483Z,26.32
2019-04-19T19:00:06.147Z,26.49
2019-04-19T19:02:34.367Z,26.59
2019-04-19T19:05:05.621Z,26.83
2019-04-19T19:07:31.163Z,26.80
2019-04-19T19:10:03.589Z,27.10
2019-04-19T19:12:26.719Z,27.00
2019-04-19T19:14:57.542Z,27.27
2019-04-19T19:17:23.870Z,27.40
2019-04-19T19:20:03.094Z,27.85
2019-04-19T19:22:32.078Z,28.19
2019-04-19T19:25:11.172Z,28.54
2019-04-19T19:27:25.587Z,28.47
2019-04-19T19:29:50.142Z,28.51
2019-04-19T19:32:19.494Z,28.76
2019-04-19T19:34:47.924Z,28.90
2019-04-19T19:37:20.758Z,28.63
2019-04-19T19:39:53.726Z,29.09
2019-04-19T19:44:53.590Z,29.21
2019-04-19T19:47:54.152Z,29.25
2019-04-19T19:50:27.983Z,28.97
2019-04-19T19:52:42.384Z,29.12
2019-04-19T19:55:11.522Z,29.45
2019-04-19T19:57:38.016Z,29.43
2019-04-19T20:00:04.326Z,29.55
2019-04-19T20:02:41.856Z,29.64
2019-04-19T20:04:53.375Z,29.96
2019-04-19T20:07:22.844Z,30.08
2019-04-19T20:09:55.341Z,30.57
2019-04-19T20:12:22.925Z,30.97
2019-04-19T20:14:47.279Z,31.33
2019-04-19T20:17:18.561Z,31.73
2019-04-19T20:19:48.890Z,32.17
2019-04-19T20:22:15.752Z,32.23
2019-04-19T20:24:54.980Z,32.15
2019-04-19T20:27:17.735Z,32.02
2019-04-19T20:29:43.809Z,32.07
2019-04-19T20:32:13.941Z,32.26
2019-04-19T20:34:39.009Z,32.94
2019-04-19T20:37:07.672Z,33.77
2019-04-19T20:39:37.579Z,34.15
2019-04-19T20:42:09.309Z,34.56
2019-04-19T20:44:53.349Z,34.31
2019-04-19T20:47:14.684Z,34.49
2019-04-19T20:49:43.772Z,35.08
2019-04-19T20:52:17.819Z,35.21
2019-04-19T20:55:00.222Z,35.70
2019-04-19T20:57:46.802Z,36.34
2019-04-19T21:00:02.577Z,37.21
2019-04-19T21:02:33.564Z,37.09
2019-04-19T21:04:59.175Z,36.78
2019-04-19T21:07:31.789Z,36.88
2019-04-19T21:10:04.051Z,36.84
2019-04-19T21:12:29.923Z,37.32
2019-04-19T21:15:09.383Z,37.14
2019-04-19T21:17:31.887Z,37.66
2019-04-19T21:19:52.679Z,37.82
2019-04-19T21:22:23.712Z,37.46
2019-04-19T21:25:04.973Z,37.63
2019-04-19T21:27:25.762Z,37.51
2019-04-19T21:29:50.011Z,37.69
2019-04-19T21:32:24.336Z,37.94
2019-04-19T21:34:45.958Z,38.09
2019-04-19T21:37:15.074Z,38.89
2019-04-19T21:39:50.619Z,38.92
2019-04-19T21:42:19.388Z,38.86
2019-04-19T21:44:53.074Z,38.88
2019-04-19T21:47:16.334Z,39.22
2019-04-19T21:49:47.934Z,39.65
2019-04-19T21:52:16.256Z,39.62
2019-04-19T21:54:42.065Z,39.44
2019-04-19T21:57:09.102Z,39.62
2019-04-19T21:59:40.707Z,39.68
2019-04-19T22:02:07.627Z,40.06
2019-04-19T22:04:42.742Z,40.44
2019-04-19T22:07:07.018Z,40.39
2019-04-19T22:09:32.571Z,40.69
2019-04-19T22:12:00.565Z,40.91
2019-04-19T22:14:31.319Z,40.77
2019-04-19T22:16:56.781Z,40.66
2019-04-19T22:19:29.441Z,41.02
2019-04-19T22:21:53.313Z,40.99
2019-04-19T22:24:26.057Z,41.27
2019-04-19T22:26:53.907Z,41.66
2019-04-19T22:29:19.694Z,42.12
2019-04-19T22:31:47.673Z,41.81
2019-04-19T22:34:14.808Z,42.14
2019-04-19T22:36:45.677Z,41.92
2019-04-19T22:39:11.638Z,42.17
2019-04-19T22:41:38.986Z,42.06
2019-04-19T22:44:06.968Z,42.50
2019-04-19T22:46:39.256Z,42.35
2019-04-19T22:49:06.768Z,42.52
2019-04-19T22:51:31.356Z,42.30
2019-04-19T22:53:58.814Z,42.60
2019-04-19T22:56:34.667Z,43.15
2019-04-19T22:58:58.145Z,43.14
2019-04-19T23:01:31.246Z,43.57
2019-04-19T23:04:05.515Z,43.96
2019-04-19T23:06:30.930Z,43.93
2019-04-19T23:09:00.965Z,43.87
2019-04-19T23:11:27.773Z,44.10
2019-04-19T23:13:55.683Z,44.16
2019-04-19T23:16:23.613Z,44.31
2019-04-19T23:18:55.313Z,44.76
2019-04-19T23:21:22.920Z,44.58
2019-04-19T23:23:49.143Z,44.92
2019-04-19T23:26:29.418Z,45.07
2019-04-19T23:28:49.514Z,45.08
2019-04-19T23:31:17.963Z,44.74
2019-04-19T23:33:50.043Z,44.92
2019-04-19T23:36:17.779Z,44.60
2019-04-19T23:38:43.290Z,44.48
2019-04-19T23:41:11.021Z,44.92
2019-04-19T23:43:41.968Z,45.32
2019-04-19T23:46:14.617Z,45.42
2019-04-19T23:48:37.327Z,45.20
2019-04-19T23:51:06.219Z,45.45
2019-04-19T23:53:37.386Z,45.37
2019-04-19T23:56:19.108Z,45.99
2019-04-19T23:58:39.586Z,46.11
